sensor_id;sensor_type;location;lat;lon;timestamp;P1;durP1;ratioP1;P2;durP2;ratioP2
13611;SDS011;6877;51.436;6.774;2023-04-03T00:01:25;10.63;;;6.75;;
13611;SDS011;6877;51.436;6.774;2023-04-03T00:03:51;9.55;;;6.90;;
13611;SDS011;6877;51.436;6.774;2023-04-03T00:06:18;12.20;;;6.72;;
13611;SDS011;6877;51.436;6.774;2023-04-03T00:08:50;10.55;;;7.05;;
13611;SDS011;6877;51.436;6.774;2023-04-03T00:11:17;14.82;;;7.18;;
13611;SDS011;6877;51.436;6.774;2023-04-03T00:13:49;10.50;;;6.53;;
13611;SDS011;6877;51.436;6.774;2023-04-03T00:16:21;8.18;;;6.13;;
13611;SDS011;6877;51.436;6.774;2023-04-03T00:18:47;12.10;;;6.80;;
13611;SDS011;6877;51.436;6.774;2023-04-03T00:21:14;11.50;;;6.68;;
13611;SDS011;6877;51.436;6.774;2023-04-03T00:23:41;9.15;;;6.78;;
13611;SDS011;6877;51.436;6.774;2023-04-03T00:26:07;9.43;;;6.47;;
13611;SDS011;6877;51.436;6.774;2023-04-03T00:28:34;11.48;;;7.45;;
13611;SDS011;6877;51.436;6.774;2023-04-03T00:31:01;18.92;;;9.75;;
13611;SDS011;6877;51.436;6.774;2023-04-03T00:33:27;19.35;;;9.35;;
13611;SDS011;6877;51.436;6.774;2023-04-03T00:35:54;10.75;;;7.22;;
13611;SDS011;6877;51.436;6.774;2023-04-03T00:38:25;14.05;;;9.02;;
13611;SDS011;6877;51.436;6.774;2023-04-03T00:40:51;16.95;;;7.68;;
13611;SDS011;6877;51.436;6.774;2023-04-03T00:43:24;16.08;;;8.95;;
13611;SDS011;6877;51.436;6.774;2023-04-03T00:45:53;11.75;;;7.57;;
13611;SDS011;6877;51.436;6.774;2023-04-03T00:50:50;13.75;;;8.30;;
13611;SDS011;6877;51.436;6.774;2023-04-03T00:53:19;10.50;;;7.45;;
13611;SDS011;6877;51.436;6.774;2023-04-03T00:55:51;12.27;;;7.72;;
13611;SDS011;6877;51.436;6.774;2023-04-03T00:58:21;9.52;;;7.07;;
13611;SDS011;6877;51.436;6.774;2023-04-03T01:00:57;13.50;;;7.97;;
13611;SDS011;6877;51.436;6.774;2023-04-03T01:03:29;14.27;;;9.57;;
13611;SDS011;6877;51.436;6.774;2023-04-03T01:05:57;19.45;;;10.55;;
13611;SDS011;6877;51.436;6.774;2023-04-03T01:08:24;16.98;;;9.50;;
13611;SDS011;6877;51.436;6.774;2023-04-03T01:10:55;19.35;;;11.80;;
13611;SDS011;6877;51.436;6.774;2023-04-03T01:13:29;20.42;;;11.10;;
13611;SDS011;6877;51.436;6.774;2023-04-03T01:15:56;19.50;;;11.25;;
13611;SDS011;6877;51.436;6.774;2023-04-03T01:18:26;18.73;;;10.98;;
13611;SDS011;6877;51.436;6.774;2023-04-03T01:21:17;18.92;;;12.70;;
13611;SDS011;6877;51.436;6.774;2023-04-03T01:26:36;19.10;;;11.18;;
13611;SDS011;6877;51.436;6.774;2023-04-03T01:29:07;14.43;;;9.52;;
13611;SDS011;6877;51.436;6.774;2023-04-03T01:31:50;17.15;;;10.23;;
13611;SDS011;6877;51.436;6.774;2023-04-03T01:34:21;23.05;;;10.65;;
13611;SDS011;6877;51.436;6.774;2023-04-03T01:36:54;17.15;;;10.38;;
13611;SDS011;6877;51.436;6.774;2023-04-03T01:39:25;20.05;;;11.90;;
13611;SDS011;6877;51.436;6.774;2023-04-03T01:41:52;18.88;;;11.95;;
13611;SDS011;6877;51.436;6.774;2023-04-03T01:44:20;22.88;;;11.93;;
13611;SDS011;6877;51.436;6.774;2023-04-03T01:46:46;17.17;;;11.13;;
13611;SDS011;6877;51.436;6.774;2023-04-03T01:49:13;22.33;;;13.13;;
13611;SDS011;6877;51.436;6.774;2023-04-03T01:51:39;20.15;;;11.93;;
13611;SDS011;6877;51.436;6.774;2023-04-03T01:54:11;21.77;;;12.55;;
13611;SDS011;6877;51.436;6.774;2023-04-03T01:56:37;21.45;;;11.75;;
13611;SDS011;6877;51.436;6.774;2023-04-03T01:59:05;19.23;;;11.27;;
13611;SDS011;6877;51.436;6.774;2023-04-03T02:01:31;20.85;;;12.45;;
13611;SDS011;6877;51.436;6.774;2023-04-03T02:04:02;19.27;;;11.93;;
13611;SDS011;6877;51.436;6.774;2023-04-03T02:06:29;21.75;;;12.30;;
13611;SDS011;6877;51.436;6.774;2023-04-03T02:09:00;16.40;;;9.85;;
13611;SDS011;6877;51.436;6.774;2023-04-03T02:11:26;15.70;;;9.90;;
13611;SDS011;6877;51.436;6.774;2023-04-03T02:13:58;15.50;;;9.82;;
13611;SDS011;6877;51.436;6.774;2023-04-03T02:16:24;15.25;;;9.80;;
13611;SDS011;6877;51.436;6.774;2023-04-03T02:18:51;16.30;;;9.25;;
13611;SDS011;6877;51.436;6.774;2023-04-03T02:21:22;15.38;;;8.55;;
13611;SDS011;6877;51.436;6.774;2023-04-03T02:23:54;19.60;;;9.57;;
13611;SDS011;6877;51.436;6.774;2023-04-03T02:26:25;11.77;;;8.20;;
13611;SDS011;6877;51.436;6.774;2023-04-03T02:28:52;12.55;;;8.32;;
13611;SDS011;6877;51.436;6.774;2023-04-03T02:31:23;21.02;;;7.82;;
13611;SDS011;6877;51.436;6.774;2023-04-03T02:33:50;14.98;;;8.32;;
13611;SDS011;6877;51.436;6.774;2023-04-03T02:36:21;17.33;;;7.35;;
13611;SDS011;6877;51.436;6.774;2023-04-03T02:38:48;17.27;;;7.75;;
13611;SDS011;6877;51.436;6.774;2023-04-03T02:41:14;13.82;;;7.55;;
13611;SDS011;6877;51.436;6.774;2023-04-03T02:43:46;15.20;;;6.72;;
13611;SDS011;6877;51.436;6.774;2023-04-03T02:46:12;10.20;;;6.40;;
13611;SDS011;6877;51.436;6.774;2023-04-03T02:48:41;12.20;;;6.18;;
13611;SDS011;6877;51.436;6.774;2023-04-03T02:51:07;14.70;;;5.75;;
13611;SDS011;6877;51.436;6.774;2023-04-03T02:53:34;12.15;;;5.90;;
13611;SDS011;6877;51.436;6.774;2023-04-03T02:56:00;13.57;;;6.47;;
13611;SDS011;6877;51.436;6.774;2023-04-03T02:58:27;12.85;;;6.05;;
13611;SDS011;6877;51.436;6.774;2023-04-03T03:00:53;18.17;;;6.43;;
13611;SDS011;6877;51.436;6.774;2023-04-03T03:03:24;12.40;;;5.80;;
13611;SDS011;6877;51.436;6.774;2023-04-03T03:06:00;8.95;;;5.38;;
13611;SDS011;6877;51.436;6.774;2023-04-03T03:08:33;8.40;;;4.90;;
13611;SDS011;6877;51.436;6.774;2023-04-03T03:11:05;7.20;;;5.07;;
13611;SDS011;6877;51.436;6.774;2023-04-03T03:13:37;10.25;;;4.97;;
13611;SDS011;6877;51.436;6.774;2023-04-03T03:16:08;11.45;;;5.18;;
13611;SDS011;6877;51.436;6.774;2023-04-03T03:18:35;7.65;;;4.97;;
13611;SDS011;6877;51.436;6.774;2023-04-03T03:21:02;9.07;;;4.45;;
13611;SDS011;6877;51.436;6.774;2023-04-03T03:23:35;8.18;;;5.32;;
13611;SDS011;6877;51.436;6.774;2023-04-03T03:26:07;7.85;;;5.25;;
13611;SDS011;6877;51.436;6.774;2023-04-03T03:28:36;9.88;;;4.88;;
13611;SDS011;6877;51.436;6.774;2023-04-03T03:31:09;12.43;;;4.63;;
13611;SDS011;6877;51.436;6.774;2023-04-03T03:33:36;5.80;;;4.50;;
13611;SDS011;6877;51.436;6.774;2023-04-03T03:36:02;7.28;;;4.35;;
13611;SDS011;6877;51.436;6.774;2023-04-03T03:38:34;8.13;;;4.70;;
13611;SDS011;6877;51.436;6.774;2023-04-03T03:41:00;6.53;;;4.10;;
13611;SDS011;6877;51.436;6.774;2023-04-03T03:43:27;9.05;;;3.85;;
13611;SDS011;6877;51.436;6.774;2023-04-03T03:45:54;9.15;;;4.85;;
13611;SDS011;6877;51.436;6.774;2023-04-03T03:48:25;11.27;;;3.70;;
13611;SDS011;6877;51.436;6.774;2023-04-03T03:50:52;9.10;;;4.20;;
13611;SDS011;6877;51.436;6.774;2023-04-03T03:53:18;8.82;;;3.90;;
13611;SDS011;6877;51.436;6.774;2023-04-03T03:55:50;6.32;;;3.97;;
13611;SDS011;6877;51.436;6.774;2023-04-03T03:58:21;5.20;;;3.90;;
13611;SDS011;6877;51.436;6.774;2023-04-03T04:00:53;12.43;;;4.70;;
13611;SDS011;6877;51.436;6.774;2023-04-03T04:03:19;12.60;;;4.80;;
13611;SDS011;6877;51.436;6.774;2023-04-03T04:05:51;8.43;;;3.88;;
13611;SDS011;6877;51.436;6.774;2023-04-03T04:08:23;9.05;;;5.13;;
13611;SDS011;6877;51.436;6.774;2023-04-03T04:10:49;7.20;;;4.10;;
13611;SDS011;6877;51.436;6.774;2023-04-03T04:13:21;9.05;;;3.60;;
13611;SDS011;6877;51.436;6.774;2023-04-03T04:15:48;4.97;;;3.83;;
13611;SDS011;6877;51.436;6.774;2023-04-03T04:18:20;7.22;;;3.40;;
13611;SDS011;6877;51.436;6.774;2023-04-03T04:20:52;10.00;;;3.47;;
13611;SDS011;6877;51.436;6.774;2023-04-03T04:23:23;6.68;;;3.40;;
13611;SDS011;6877;51.436;6.774;2023-04-03T04:25:50;13.25;;;4.18;;
13611;SDS011;6877;51.436;6.774;2023-04-03T04:28:21;9.23;;;3.72;;
13611;SDS011;6877;51.436;6.774;2023-04-03T04:30:48;7.97;;;3.30;;
13611;SDS011;6877;51.436;6.774;2023-04-03T04:33:19;5.53;;;2.92;;
13611;SDS011;6877;51.436;6.774;2023-04-03T04:35:47;7.28;;;3.17;;
13611;SDS011;6877;51.436;6.774;2023-04-03T04:38:19;7.88;;;3.70;;
13611;SDS011;6877;51.436;6.774;2023-04-03T04:40:50;8.07;;;3.53;;
13611;SDS011;6877;51.436;6.774;2023-04-03T04:43:17;11.48;;;3.72;;
13611;SDS011;6877;51.436;6.774;2023-04-03T04:45:43;8.75;;;3.45;;
13611;SDS011;6877;51.436;6.774;2023-04-03T04:48:10;9.38;;;4.07;;
13611;SDS011;6877;51.436;6.774;2023-04-03T04:50:42;4.47;;;2.83;;
13611;SDS011;6877;51.436;6.774;2023-04-03T04:53:08;9.27;;;3.42;;
13611;SDS011;6877;51.436;6.774;2023-04-03T04:55:34;7.20;;;3.63;;
13611;SDS011;6877;51.436;6.774;2023-04-03T04:58:01;6.00;;;3.42;;
13611;SDS011;6877;51.436;6.774;2023-04-03T05:00:27;10.57;;;5.60;;
13611;SDS011;6877;51.436;6.774;2023-04-03T05:02:54;10.98;;;3.03;;
13611;SDS011;6877;51.436;6.774;2023-04-03T05:05:20;11.13;;;4.30;;
13611;SDS011;6877;51.436;6.774;2023-04-03T05:07:46;16.13;;;5.90;;
13611;SDS011;6877;51.436;6.774;2023-04-03T05:10:13;7.50;;;3.42;;
13611;SDS011;6877;51.436;6.774;2023-04-03T05:12:44;11.38;;;4.03;;
13611;SDS011;6877;51.436;6.774;2023-04-03T05:15:16;5.63;;;3.58;;
13611;SDS011;6877;51.436;6.774;2023-04-03T05:17:47;10.00;;;4.13;;
13611;SDS011;6877;51.436;6.774;2023-04-03T05:20:14;7.80;;;4.47;;
13611;SDS011;6877;51.436;6.774;2023-04-03T05:22:40;12.70;;;3.83;;
13611;SDS011;6877;51.436;6.774;2023-04-03T05:25:07;8.90;;;4.70;;
13611;SDS011;6877;51.436;6.774;2023-04-03T05:27:34;19.73;;;5.50;;
13611;SDS011;6877;51.436;6.774;2023-04-03T05:30:05;13.95;;;4.45;;
13611;SDS011;6877;51.436;6.774;2023-04-03T05:32:32;10.23;;;4.25;;
13611;SDS011;6877;51.436;6.774;2023-04-03T05:34:59;13.07;;;4.07;;
13611;SDS011;6877;51.436;6.774;2023-04-03T05:37:25;5.53;;;3.78;;
13611;SDS011;6877;51.436;6.774;2023-04-03T05:39:52;9.70;;;4.70;;
13611;SDS011;6877;51.436;6.774;2023-04-03T05:42:18;11.20;;;4.13;;
13611;SDS011;6877;51.436;6.774;2023-04-03T05:44:45;12.27;;;3.80;;
13611;SDS011;6877;51.436;6.774;2023-04-03T05:47:20;10.45;;;4.47;;
13611;SDS011;6877;51.436;6.774;2023-04-03T05:49:47;12.30;;;4.70;;
13611;SDS011;6877;51.436;6.774;2023-04-03T05:52:23;8.80;;;5.13;;
13611;SDS011;6877;51.436;6.774;2023-04-03T05:54:53;16.27;;;4.65;;
13611;SDS011;6877;51.436;6.774;2023-04-03T05:57:25;14.75;;;4.55;;
13611;SDS011;6877;51.436;6.774;2023-04-03T05:59:56;17.13;;;4.25;;
13611;SDS011;6877;51.436;6.774;2023-04-03T06:02:23;8.15;;;3.78;;
13611;SDS011;6877;51.436;6.774;2023-04-03T06:04:51;10.18;;;3.72;;
13611;SDS011;6877;51.436;6.774;2023-04-03T06:07:19;5.72;;;4.05;;
13611;SDS011;6877;51.436;6.774;2023-04-03T06:09:53;10.60;;;4.82;;
13611;SDS011;6877;51.436;6.774;2023-04-03T06:12:21;9.80;;;4.32;;
13611;SDS011;6877;51.436;6.774;2023-04-03T06:14:49;10.45;;;3.97;;
13611;SDS011;6877;51.436;6.774;2023-04-03T06:17:21;20.23;;;7.00;;
13611;SDS011;6877;51.436;6.774;2023-04-03T06:19:47;12.25;;;6.20;;
13611;SDS011;6877;51.436;6.774;2023-04-03T06:22:13;10.68;;;4.40;;
13611;SDS011;6877;51.436;6.774;2023-04-03T06:24:41;7.72;;;3.97;;
13611;SDS011;6877;51.436;6.774;2023-04-03T06:27:07;12.52;;;3.42;;
13611;SDS011;6877;51.436;6.774;2023-04-03T06:29:35;5.22;;;3.50;;
13611;SDS011;6877;51.436;6.774;2023-04-03T06:32:08;13.65;;;4.28;;
13611;SDS011;6877;51.436;6.774;2023-04-03T06:34:39;17.67;;;3.83;;
13611;SDS011;6877;51.436;6.774;2023-04-03T06:37:14;16.58;;;5.45;;
13611;SDS011;6877;51.436;6.774;2023-04-03T06:39:42;10.27;;;5.30;;
13611;SDS011;6877;51.436;6.774;2023-04-03T06:42:14;11.73;;;3.53;;
13611;SDS011;6877;51.436;6.774;2023-04-03T06:44:41;7.93;;;3.70;;
13611;SDS011;6877;51.436;6.774;2023-04-03T06:47:12;8.73;;;4.55;;
13611;SDS011;6877;51.436;6.774;2023-04-03T06:49:40;7.75;;;3.25;;
13611;SDS011;6877;51.436;6.774;2023-04-03T06:52:08;7.88;;;3.13;;
13611;SDS011;6877;51.436;6.774;2023-04-03T06:54:40;10.57;;;3.38;;
13611;SDS011;6877;51.436;6.774;2023-04-03T06:57:11;8.40;;;3.22;;
13611;SDS011;6877;51.436;6.774;2023-04-03T06:59:38;9.93;;;3.15;;
13611;SDS011;6877;51.436;6.774;2023-04-03T07:02:04;6.18;;;3.50;;
13611;SDS011;6877;51.436;6.774;2023-04-03T07:04:31;9.57;;;3.60;;
13611;SDS011;6877;51.436;6.774;2023-04-03T07:06:57;6.55;;;3.05;;
13611;SDS011;6877;51.436;6.774;2023-04-03T07:09:24;7.82;;;2.85;;
13611;SDS011;6877;51.436;6.774;2023-04-03T07:11:50;11.95;;;3.60;;
13611;SDS011;6877;51.436;6.774;2023-04-03T07:14:17;17.52;;;4.47;;
13611;SDS011;6877;51.436;6.774;2023-04-03T07:16:48;6.90;;;3.45;;
13611;SDS011;6877;51.436;6.774;2023-04-03T07:19:19;8.05;;;3.10;;
13611;SDS011;6877;51.436;6.774;2023-04-03T07:21:46;7.40;;;3.30;;
13611;SDS011;6877;51.436;6.774;2023-04-03T07:24:12;7.72;;;3.00;;
13611;SDS011;6877;51.436;6.774;2023-04-03T07:26:44;5.40;;;3.42;;
13611;SDS011;6877;51.436;6.774;2023-04-03T07:29:11;5.30;;;2.92;;
13611;SDS011;6877;51.436;6.774;2023-04-03T07:31:38;5.90;;;3.13;;
13611;SDS011;6877;51.436;6.774;2023-04-03T07:34:05;15.32;;;3.58;;
13611;SDS011;6877;51.436;6.774;2023-04-03T07:36:32;5.18;;;3.20;;
13611;SDS011;6877;51.436;6.774;2023-04-03T07:38:59;4.32;;;2.80;;
13611;SDS011;6877;51.436;6.774;2023-04-03T07:41:25;8.05;;;3.67;;
13611;SDS011;6877;51.436;6.774;2023-04-03T07:43:57;7.65;;;3.42;;
13611;SDS011;6877;51.436;6.774;2023-04-03T07:46:23;5.45;;;3.40;;
13611;SDS011;6877;51.436;6.774;2023-04-03T07:48:50;6.03;;;3.28;;
13611;SDS011;6877;51.436;6.774;2023-04-03T07:51:21;8.85;;;3.65;;
13611;SDS011;6877;51.436;6.774;2023-04-03T07:53:48;6.07;;;2.95;;
13611;SDS011;6877;51.436;6.774;2023-04-03T07:56:14;8.02;;;3.25;;
13611;SDS011;6877;51.436;6.774;2023-04-03T07:58:41;3.17;;;2.70;;
13611;SDS011;6877;51.436;6.774;2023-04-03T08:01:12;7.00;;;3.40;;
13611;SDS011;6877;51.436;6.774;2023-04-03T08:03:39;6.97;;;3.13;;
13611;SDS011;6877;51.436;6.774;2023-04-03T08:06:06;7.38;;;3.00;;
13611;SDS011;6877;51.436;6.774;2023-04-03T08:08:37;22.42;;;5.10;;
13611;SDS011;6877;51.436;6.774;2023-04-03T08:11:03;12.98;;;3.72;;
13611;SDS011;6877;51.436;6.774;2023-04-03T08:13:32;11.00;;;4.43;;
13611;SDS011;6877;51.436;6.774;2023-04-03T08:16:06;7.28;;;2.95;;
13611;SDS011;6877;51.436;6.774;2023-04-03T08:18:40;6.20;;;3.53;;
13611;SDS011;6877;51.436;6.774;2023-04-03T08:21:10;7.80;;;2.85;;
13611;SDS011;6877;51.436;6.774;2023-04-03T08:23:39;8.43;;;3.10;;
13611;SDS011;6877;51.436;6.774;2023-04-03T08:26:14;12.38;;;3.50;;
13611;SDS011;6877;51.436;6.774;2023-04-03T08:28:42;8.95;;;2.80;;
13611;SDS011;6877;51.436;6.774;2023-04-03T08:31:10;6.07;;;2.72;;
13611;SDS011;6877;51.436;6.774;2023-04-03T08:33:38;7.50;;;2.78;;
13611;SDS011;6877;51.436;6.774;2023-04-03T08:36:16;4.07;;;2.50;;
13611;SDS011;6877;51.436;6.774;2023-04-03T08:38:50;9.50;;;2.38;;
13611;SDS011;6877;51.436;6.774;2023-04-03T08:41:35;7.35;;;2.60;;
13611;SDS011;6877;51.436;6.774;2023-04-03T08:52:19;5.10;;;2.38;;
13611;SDS011;6877;51.436;6.774;2023-04-03T08:54:58;4.50;;;2.90;;
13611;SDS011;6877;51.436;6.774;2023-04-03T08:57:33;3.67;;;2.15;;
13611;SDS011;6877;51.436;6.774;2023-04-03T09:00:16;4.88;;;2.20;;
13611;SDS011;6877;51.436;6.774;2023-04-03T09:02:51;4.97;;;2.95;;
13611;SDS011;6877;51.436;6.774;2023-04-03T09:05:20;4.15;;;1.92;;
13611;SDS011;6877;51.436;6.774;2023-04-03T09:07:55;5.00;;;1.95;;
13611;SDS011;6877;51.436;6.774;2023-04-03T09:10:26;2.33;;;1.60;;
13611;SDS011;6877;51.436;6.774;2023-04-03T09:13:08;5.28;;;1.85;;
13611;SDS011;6877;51.436;6.774;2023-04-03T09:15:39;7.93;;;2.72;;
13611;SDS011;6877;51.436;6.774;2023-04-03T09:21:17;2.90;;;1.60;;
13611;SDS011;6877;51.436;6.774;2023-04-03T09:23:51;5.20;;;2.00;;
13611;SDS011;6877;51.436;6.774;2023-04-03T09:29:18;3.78;;;1.50;;
13611;SDS011;6877;51.436;6.774;2023-04-03T09:31:49;2.88;;;1.88;;
13611;SDS011;6877;51.436;6.774;2023-04-03T09:36:51;5.95;;;1.80;;
13611;SDS011;6877;51.436;6.774;2023-04-03T09:39:26;6.20;;;1.38;;
13611;SDS011;6877;51.436;6.774;2023-04-03T09:41:55;5.05;;;1.85;;
13611;SDS011;6877;51.436;6.774;2023-04-03T09:44:32;3.38;;;1.40;;
13611;SDS011;6877;51.436;6.774;2023-04-03T09:47:23;5.30;;;1.45;;
13611;SDS011;6877;51.436;6.774;2023-04-03T09:52:40;3.58;;;1.50;;
13611;SDS011;6877;51.436;6.774;2023-04-03T09:55:14;3.13;;;1.33;;
13611;SDS011;6877;51.436;6.774;2023-04-03T09:58:00;1.98;;;1.48;;
13611;SDS011;6877;51.436;6.774;2023-04-03T10:00:34;1.58;;;1.27;;
13611;SDS011;6877;51.436;6.774;2023-04-03T10:03:03;4.65;;;1.40;;
13611;SDS011;6877;51.436;6.774;2023-04-03T10:05:32;2.05;;;1.30;;
13611;SDS011;6877;51.436;6.774;2023-04-03T10:10:34;2.70;;;1.40;;
13611;SDS011;6877;51.436;6.774;2023-04-03T10:13:06;1.90;;;1.40;;
13611;SDS011;6877;51.436;6.774;2023-04-03T10:15:42;2.60;;;1.30;;
13611;SDS011;6877;51.436;6.774;2023-04-03T10:20:57;3.00;;;1.65;;
13611;SDS011;6877;51.436;6.774;2023-04-03T10:23:38;5.43;;;1.42;;
13611;SDS011;6877;51.436;6.774;2023-04-03T10:31:56;2.53;;;1.38;;
13611;SDS011;6877;51.436;6.774;2023-04-03T10:34:37;5.82;;;1.63;;
13611;SDS011;6877;51.436;6.774;2023-04-03T10:37:29;6.18;;;1.33;;
13611;SDS011;6877;51.436;6.774;2023-04-03T10:42:46;2.20;;;1.65;;
13611;SDS011;6877;51.436;6.774;2023-04-03T10:45:24;4.10;;;1.50;;
13611;SDS011;6877;51.436;6.774;2023-04-03T10:50:38;4.03;;;1.92;;
13611;SDS011;6877;51.436;6.774;2023-04-03T10:58:48;3.95;;;1.63;;
13611;SDS011;6877;51.436;6.774;2023-04-03T11:01:31;2.75;;;1.58;;
13611;SDS011;6877;51.436;6.774;2023-04-03T11:04:06;5.93;;;1.85;;
13611;SDS011;6877;51.436;6.774;2023-04-03T11:06:39;5.03;;;1.75;;
13611;SDS011;6877;51.436;6.774;2023-04-03T11:09:27;4.30;;;1.92;;
13611;SDS011;6877;51.436;6.774;2023-04-03T11:12:04;3.08;;;1.80;;
13611;SDS011;6877;51.436;6.774;2023-04-03T11:14:43;3.83;;;1.80;;
13611;SDS011;6877;51.436;6.774;2023-04-03T11:22:50;3.58;;;2.17;;
13611;SDS011;6877;51.436;6.774;2023-04-03T11:25:20;6.05;;;2.03;;
13611;SDS011;6877;51.436;6.774;2023-04-03T11:30:31;3.65;;;1.88;;
13611;SDS011;6877;51.436;6.774;2023-04-03T11:36:05;4.63;;;2.50;;
13611;SDS011;6877;51.436;6.774;2023-04-03T11:38:40;2.20;;;1.90;;
13611;SDS011;6877;51.436;6.774;2023-04-03T11:41:14;3.78;;;2.33;;
13611;SDS011;6877;51.436;6.774;2023-04-03T12:13:36;4.47;;;2.45;;
13611;SDS011;6877;51.436;6.774;2023-04-03T12:31:53;2.72;;;1.85;;
13611;SDS011;6877;51.436;6.774;2023-04-03T12:40:05;6.03;;;1.80;;
13611;SDS011;6877;51.436;6.774;2023-04-03T12:43:03;2.95;;;1.92;;
13611;SDS011;6877;51.436;6.774;2023-04-03T12:45:39;5.35;;;2.17;;
13611;SDS011;6877;51.436;6.774;2023-04-03T12:48:28;2.20;;;1.77;;
13611;SDS011;6877;51.436;6.774;2023-04-03T12:50:57;13.48;;;2.78;;
13611;SDS011;6877;51.436;6.774;2023-04-03T12:53:25;4.05;;;2.10;;
13611;SDS011;6877;51.436;6.774;2023-04-03T12:56:18;2.88;;;2.15;;
13611;SDS011;6877;51.436;6.774;2023-04-03T12:58:53;3.40;;;2.47;;
13611;SDS011;6877;51.436;6.774;2023-04-03T13:01:23;2.72;;;1.80;;
13611;SDS011;6877;51.436;6.774;2023-04-03T13:03:57;11.05;;;2.20;;
13611;SDS011;6877;51.436;6.774;2023-04-03T13:06:38;2.38;;;2.03;;
13611;SDS011;6877;51.436;6.774;2023-04-03T13:09:25;4.50;;;1.80;;
13611;SDS011;6877;51.436;6.774;2023-04-03T13:14:51;7.55;;;2.38;;
13611;SDS011;6877;51.436;6.774;2023-04-03T13:17:19;3.08;;;1.80;;
13611;SDS011;6877;51.436;6.774;2023-04-03T13:19:47;2.80;;;1.65;;
13611;SDS011;6877;51.436;6.774;2023-04-03T13:25:13;6.88;;;2.10;;
13611;SDS011;6877;51.436;6.774;2023-04-03T13:27:41;2.22;;;1.58;;
13611;SDS011;6877;51.436;6.774;2023-04-03T13:30:19;6.75;;;2.05;;
13611;SDS011;6877;51.436;6.774;2023-04-03T13:32:56;2.58;;;2.22;;
13611;SDS011;6877;51.436;6.774;2023-04-03T13:35:32;3.33;;;2.47;;
13611;SDS011;6877;51.436;6.774;2023-04-03T13:38:01;5.45;;;1.98;;
13611;SDS011;6877;51.436;6.774;2023-04-03T13:40:51;4.38;;;2.00;;
13611;SDS011;6877;51.436;6.774;2023-04-03T13:43:25;3.70;;;2.03;;
13611;SDS011;6877;51.436;6.774;2023-04-03T13:45:58;12.23;;;3.30;;
13611;SDS011;6877;51.436;6.774;2023-04-03T13:53:44;5.03;;;1.70;;
13611;SDS011;6877;51.436;6.774;2023-04-03T13:56:27;6.35;;;3.28;;
13611;SDS011;6877;51.436;6.774;2023-04-03T14:04:14;4.53;;;1.92;;
13611;SDS011;6877;51.436;6.774;2023-04-03T14:06:49;3.75;;;1.65;;
13611;SDS011;6877;51.436;6.774;2023-04-03T14:09:16;3.35;;;1.80;;
13611;SDS011;6877;51.436;6.774;2023-04-03T14:11:44;4.25;;;1.73;;
13611;SDS011;6877;51.436;6.774;2023-04-03T14:14:14;2.03;;;1.85;;
13611;SDS011;6877;51.436;6.774;2023-04-03T14:16:44;3.78;;;2.10;;
13611;SDS011;6877;51.436;6.774;2023-04-03T14:19:19;3.90;;;2.15;;
13611;SDS011;6877;51.436;6.774;2023-04-03T14:21:48;2.50;;;1.60;;
13611;SDS011;6877;51.436;6.774;2023-04-03T14:24:17;3.10;;;2.10;;
13611;SDS011;6877;51.436;6.774;2023-04-03T14:26:43;3.58;;;1.92;;
13611;SDS011;6877;51.436;6.774;2023-04-03T14:29:11;4.65;;;2.25;;
13611;SDS011;6877;51.436;6.774;2023-04-03T14:31:39;2.20;;;2.00;;
13611;SDS011;6877;51.436;6.774;2023-04-03T14:34:06;3.63;;;1.95;;
13611;SDS011;6877;51.436;6.774;2023-04-03T14:36:33;6.10;;;2.30;;
13611;SDS011;6877;51.436;6.774;2023-04-03T14:39:08;2.38;;;1.95;;
13611;SDS011;6877;51.436;6.774;2023-04-03T14:41:42;4.95;;;2.58;;
13611;SDS011;6877;51.436;6.774;2023-04-03T14:44:09;3.90;;;2.35;;
13611;SDS011;6877;51.436;6.774;2023-04-03T14:46:42;4.15;;;1.90;;
13611;SDS011;6877;51.436;6.774;2023-04-03T14:49:12;3.40;;;2.05;;
13611;SDS011;6877;51.436;6.774;2023-04-03T14:51:41;3.42;;;1.98;;
13611;SDS011;6877;51.436;6.774;2023-04-03T14:54:14;2.45;;;1.95;;
13611;SDS011;6877;51.436;6.774;2023-04-03T14:56:43;4.63;;;2.10;;
13611;SDS011;6877;51.436;6.774;2023-04-03T14:59:11;6.75;;;2.00;;
13611;SDS011;6877;51.436;6.774;2023-04-03T15:01:44;3.45;;;2.13;;
13611;SDS011;6877;51.436;6.774;2023-04-03T15:04:15;3.92;;;2.10;;
13611;SDS011;6877;51.436;6.774;2023-04-03T15:06:51;3.15;;;2.13;;
13611;SDS011;6877;51.436;6.774;2023-04-03T15:09:27;5.80;;;1.90;;
13611;SDS011;6877;51.436;6.774;2023-04-03T15:11:55;4.65;;;1.73;;
13611;SDS011;6877;51.436;6.774;2023-04-03T15:14:26;2.35;;;1.70;;
13611;SDS011;6877;51.436;6.774;2023-04-03T15:16:58;1.88;;;1.70;;
13611;SDS011;6877;51.436;6.774;2023-04-03T15:19:31;6.63;;;2.20;;
13611;SDS011;6877;51.436;6.774;2023-04-03T15:22:03;8.63;;;2.17;;
13611;SDS011;6877;51.436;6.774;2023-04-03T15:24:29;2.10;;;1.95;;
13611;SDS011;6877;51.436;6.774;2023-04-03T15:26:56;2.88;;;2.03;;
13611;SDS011;6877;51.436;6.774;2023-04-03T15:29:22;3.90;;;2.30;;
13611;SDS011;6877;51.436;6.774;2023-04-03T15:31:48;2.05;;;1.75;;
13611;SDS011;6877;51.436;6.774;2023-04-03T15:34:23;1.95;;;1.75;;
13611;SDS011;6877;51.436;6.774;2023-04-03T15:36:50;5.75;;;1.95;;
13611;SDS011;6877;51.436;6.774;2023-04-03T15:39:18;5.95;;;3.03;;
13611;SDS011;6877;51.436;6.774;2023-04-03T15:41:44;4.72;;;3.05;;
13611;SDS011;6877;51.436;6.774;2023-04-03T15:44:11;3.22;;;2.10;;
13611;SDS011;6877;51.436;6.774;2023-04-03T15:46:39;2.92;;;2.38;;
13611;SDS011;6877;51.436;6.774;2023-04-03T15:49:05;5.25;;;2.08;;
13611;SDS011;6877;51.436;6.774;2023-04-03T15:51:37;5.30;;;2.70;;
13611;SDS011;6877;51.436;6.774;2023-04-03T15:54:06;3.95;;;1.90;;
13611;SDS011;6877;51.436;6.774;2023-04-03T15:56:38;2.42;;;1.85;;
13611;SDS011;6877;51.436;6.774;2023-04-03T15:59:04;6.45;;;2.17;;
13611;SDS011;6877;51.436;6.774;2023-04-03T16:01:31;3.85;;;2.30;;
13611;SDS011;6877;51.436;6.774;2023-04-03T16:03:58;6.40;;;1.88;;
13611;SDS011;6877;51.436;6.774;2023-04-03T16:06:24;4.80;;;2.40;;
13611;SDS011;6877;51.436;6.774;2023-04-03T16:08:52;3.33;;;2.33;;
13611;SDS011;6877;51.436;6.774;2023-04-03T16:11:23;4.35;;;2.15;;
13611;SDS011;6877;51.436;6.774;2023-04-03T16:13:50;8.07;;;2.33;;
13611;SDS011;6877;51.436;6.774;2023-04-03T16:16:17;4.70;;;2.53;;
13611;SDS011;6877;51.436;6.774;2023-04-03T16:18:43;5.05;;;1.92;;
13611;SDS011;6877;51.436;6.774;2023-04-03T16:21:15;3.45;;;2.15;;
13611;SDS011;6877;51.436;6.774;2023-04-03T16:23:43;4.32;;;2.20;;
13611;SDS011;6877;51.436;6.774;2023-04-03T16:26:10;7.40;;;2.42;;
13611;SDS011;6877;51.436;6.774;2023-04-03T16:28:37;6.53;;;2.35;;
13611;SDS011;6877;51.436;6.774;2023-04-03T16:31:03;3.95;;;2.22;;
13611;SDS011;6877;51.436;6.774;2023-04-03T16:33:31;5.15;;;2.15;;
13611;SDS011;6877;51.436;6.774;2023-04-03T16:35:57;5.07;;;2.45;;
13611;SDS011;6877;51.436;6.774;2023-04-03T16:38:29;3.55;;;2.30;;
13611;SDS011;6877;51.436;6.774;2023-04-03T16:40:55;4.03;;;2.50;;
13611;SDS011;6877;51.436;6.774;2023-04-03T16:43:35;3.95;;;3.03;;
13611;SDS011;6877;51.436;6.774;2023-04-03T16:46:02;4.50;;;2.35;;
13611;SDS011;6877;51.436;6.774;2023-04-03T16:48:29;4.00;;;2.40;;
13611;SDS011;6877;51.436;6.774;2023-04-03T16:50:56;6.68;;;2.58;;
13611;SDS011;6877;51.436;6.774;2023-04-03T16:53:23;2.78;;;2.15;;
13611;SDS011;6877;51.436;6.774;2023-04-03T16:55:59;4.00;;;2.45;;
13611;SDS011;6877;51.436;6.774;2023-04-03T16:58:25;4.57;;;2.78;;
13611;SDS011;6877;51.436;6.774;2023-04-03T17:00:57;3.33;;;2.28;;
13611;SDS011;6877;51.436;6.774;2023-04-03T17:03:28;5.13;;;2.58;;
13611;SDS011;6877;51.436;6.774;2023-04-03T17:05:54;4.57;;;2.40;;
13611;SDS011;6877;51.436;6.774;2023-04-03T17:08:29;3.20;;;2.30;;
13611;SDS011;6877;51.436;6.774;2023-04-03T17:10:55;3.03;;;2.30;;
13611;SDS011;6877;51.436;6.774;2023-04-03T17:13:22;4.03;;;2.08;;
13611;SDS011;6877;51.436;6.774;2023-04-03T17:15:48;4.63;;;2.70;;
13611;SDS011;6877;51.436;6.774;2023-04-03T17:18:19;5.22;;;2.63;;
13611;SDS011;6877;51.436;6.774;2023-04-03T17:20:46;3.97;;;2.45;;